sensor_id;sensor_type;location;lat;lon;timestamp;pressure;altitude;pressure_sealevel;temperature;humidity
7990;BME280;4040;42.848;23.034;2022-09-03T00:02:40;94952.34;;;16.04;100.00
7990;BME280;4040;42.848;23.034;2022-09-03T00:08:34;94948.56;;;16.01;100.00
7990;BME280;4040;42.848;23.034;2022-09-03T00:14:33;94948.56;;;16.01;100.00
7990;BME280;4040;42.848;23.034;2022-09-03T00:20:27;94944.13;;;16.07;100.00
7990;BME280;4040;42.848;23.034;2022-09-03T00:26:24;94908.16;;;16.03;100.00
7990;BME280;4040;42.848;23.034;2022-09-03T00:32:41;94937.28;;;16.15;100.00
7990;BME280;4040;42.848;23.034;2022-09-03T00:38:33;94926.41;;;16.15;100.00
7990;BME280;4040;42.848;23.034;2022-09-03T00:44:45;94942.63;;;16.19;100.00
7990;BME280;4040;42.848;23.034;2022-09-03T00:50:48;94946.63;;;16.14;100.00
7990;BME280;4040;42.848;23.034;2022-09-03T00:56:51;94945.13;;;16.13;100.00
7990;BME280;4040;42.848;23.034;2022-09-03T01:03:03;94932.72;;;16.12;100.00
7990;BME280;4040;42.848;23.034;2022-09-03T01:09:06;94875.28;;;15.60;100.00
7990;BME280;4040;42.848;23.034;2022-09-03T01:15:04;94946.38;;;15.96;100.00
7990;BME280;4040;42.848;23.034;2022-09-03T01:21:16;94949.63;;;15.91;100.00
7990;BME280;4040;42.848;23.034;2022-09-03T01:27:24;94956.50;;;15.96;100.00
7990;BME280;4040;42.848;23.034;2022-09-03T01:33:24;94962.03;;;15.92;100.00
7990;BME280;4040;42.848;23.034;2022-09-03T01:39:20;94966.25;;;15.93;100.00
7990;BME280;4040;42.848;23.034;2022-09-03T01:45:26;94967.97;;;15.75;100.00
7990;BME280;4040;42.848;23.034;2022-09-03T01:51:20;94965.94;;;15.91;100.00
7990;BME280;4040;42.848;23.034;2022-09-03T01:57:32;94964.41;;;15.90;100.00
7990;BME280;4040;42.848;23.034;2022-09-03T02:03:23;94975.06;;;15.97;100.00
7990;BME280;4040;42.848;23.034;2022-09-03T02:09:15;94970.41;;;16.10;100.00
7990;BME280;4040;42.848;23.034;2022-09-03T02:15:08;94952.22;;;15.82;100.00
7990;BME280;4040;42.848;23.034;2022-09-03T02:20:59;94977.66;;;15.88;100.00
7990;BME280;4040;42.848;23.034;2022-09-03T02:26:50;94978.25;;;16.08;100.00
7990;BME280;4040;42.848;23.034;2022-09-03T02:32:40;94967.50;;;16.17;100.00
7990;BME280;4040;42.848;23.034;2022-09-03T02:38:29;94964.47;;;16.15;100.00
7990;BME280;4040;42.848;23.034;2022-09-03T02:44:22;94961.81;;;15.99;100.00
7990;BME280;4040;42.848;23.034;2022-09-03T02:50:14;94967.38;;;16.08;100.00
7990;BME280;4040;42.848;23.034;2022-09-03T02:56:03;94980.88;;;16.24;100.00
7990;BME280;4040;42.848;23.034;2022-09-03T03:01:54;94977.91;;;16.06;100.00
7990;BME280;4040;42.848;23.034;2022-09-03T03:07:42;94976.53;;;16.14;100.00
7990;BME280;4040;42.848;23.034;2022-09-03T03:13:31;94981.63;;;16.12;100.00
7990;BME280;4040;42.848;23.034;2022-09-03T03:19:21;94978.00;;;16.03;100.00
7990;BME280;4040;42.848;23.034;2022-09-03T03:25:10;94983.03;;;16.04;100.00
7990;BME280;4040;42.848;23.034;2022-09-03T03:31:04;94965.72;;;15.98;100.00
7990;BME280;4040;42.848;23.034;2022-09-03T03:36:55;94974.41;;;15.93;100.00
7990;BME280;4040;42.848;23.034;2022-09-03T03:42:43;94975.00;;;15.72;100.00
7990;BME280;4040;42.848;23.034;2022-09-03T03:48:33;94979.19;;;15.61;100.00
7990;BME280;4040;42.848;23.034;2022-09-03T03:54:23;94967.69;;;15.69;100.00
7990;BME280;4040;42.848;23.034;2022-09-03T04:00:13;94969.47;;;15.47;100.00
7990;BME280;4040;42.848;23.034;2022-09-03T04:10:07;94982.84;;;15.83;100.00
7990;BME280;4040;42.848;23.034;2022-09-03T04:16:00;94989.88;;;15.68;100.00
7990;BME280;4040;42.848;23.034;2022-09-03T04:21:49;94989.28;;;15.60;100.00
7990;BME280;4040;42.848;23.034;2022-09-03T04:27:39;95001.09;;;15.82;100.00
7990;BME280;4040;42.848;23.034;2022-09-03T04:33:28;95016.72;;;15.78;100.00
7990;BME280;4040;42.848;23.034;2022-09-03T04:39:17;95013.84;;;15.69;100.00
7990;BME280;4040;42.848;23.034;2022-09-03T04:45:09;95025.56;;;15.66;100.00
7990;BME280;4040;42.848;23.034;2022-09-03T04:51:02;95041.50;;;15.80;100.00
7990;BME280;4040;42.848;23.034;2022-09-03T04:56:52;95047.31;;;15.66;100.00
7990;BME280;4040;42.848;23.034;2022-09-03T05:02:42;95064.75;;;15.81;100.00
7990;BME280;4040;42.848;23.034;2022-09-03T05:12:58;95050.34;;;16.25;100.00
7990;BME280;4040;42.848;23.034;2022-09-03T05:18:51;95041.00;;;16.80;100.00
7990;BME280;4040;42.848;23.034;2022-09-03T05:24:40;95040.22;;;17.04;100.00
7990;BME280;4040;42.848;23.034;2022-09-03T05:30:29;95042.91;;;17.54;100.00
7990;BME280;4040;42.848;23.034;2022-09-03T05:36:21;95044.91;;;17.41;100.00
7990;BME280;4040;42.848;23.034;2022-09-03T05:42:10;95036.50;;;17.48;100.00
7990;BME280;4040;42.848;23.034;2022-09-03T05:48:01;95034.91;;;17.72;100.00
7990;BME280;4040;42.848;23.034;2022-09-03T05:53:52;95025.22;;;18.57;100.00
7990;BME280;4040;42.848;23.034;2022-09-03T05:59:41;95032.00;;;17.88;100.00
7990;BME280;4040;42.848;23.034;2022-09-03T06:05:30;95039.84;;;17.86;100.00
7990;BME280;4040;42.848;23.034;2022-09-03T06:15:42;95038.69;;;18.82;100.00
7990;BME280;4040;42.848;23.034;2022-09-03T06:21:30;95028.34;;;19.56;100.00
7990;BME280;4040;42.848;23.034;2022-09-03T06:27:19;95034.66;;;19.26;100.00
7990;BME280;4040;42.848;23.034;2022-09-03T06:33:10;95028.34;;;19.65;100.00
7990;BME280;4040;42.848;23.034;2022-09-03T06:38:58;95032.78;;;21.58;100.00
7990;BME280;4040;42.848;23.034;2022-09-03T06:44:47;95004.41;;;26.10;98.03
7990;BME280;4040;42.848;23.034;2022-09-03T06:50:38;95016.19;;;28.24;70.07
7990;BME280;4040;42.848;23.034;2022-09-03T06:56:27;95025.22;;;24.96;83.87
7990;BME280;4040;42.848;23.034;2022-09-03T07:02:15;95038.00;;;22.41;100.00
7990;BME280;4040;42.848;23.034;2022-09-03T07:08:06;95041.59;;;22.62;100.00
7990;BME280;4040;42.848;23.034;2022-09-03T07:18:18;95047.38;;;22.11;100.00
7990;BME280;4040;42.848;23.034;2022-09-03T07:24:08;95034.22;;;22.97;100.00
7990;BME280;4040;42.848;23.034;2022-09-03T07:29:58;95060.34;;;22.63;100.00
7990;BME280;4040;42.848;23.034;2022-09-03T07:35:47;95068.66;;;21.78;100.00
7990;BME280;4040;42.848;23.034;2022-09-03T07:41:38;95072.78;;;21.41;100.00
7990;BME280;4040;42.848;23.034;2022-09-03T07:47:31;95069.75;;;21.39;100.00
7990;BME280;4040;42.848;23.034;2022-09-03T07:53:20;95066.00;;;20.68;100.00
7990;BME280;4040;42.848;23.034;2022-09-03T07:59:11;95079.38;;;20.67;100.00
7990;BME280;4040;42.848;23.034;2022-09-03T08:04:59;95079.09;;;21.56;100.00
7990;BME280;4040;42.848;23.034;2022-09-03T08:10:48;95079.00;;;22.88;100.00
7990;BME280;4040;42.848;23.034;2022-09-03T08:21:00;95077.84;;;21.66;100.00
7990;BME280;4040;42.848;23.034;2022-09-03T08:26:49;95069.56;;;21.10;100.00
7990;BME280;4040;42.848;23.034;2022-09-03T08:32:38;95073.19;;;21.16;100.00
7990;BME280;4040;42.848;23.034;2022-09-03T08:38:28;95076.66;;;22.05;100.00
7990;BME280;4040;42.848;23.034;2022-09-03T08:44:23;95084.38;;;21.92;100.00
7990;BME280;4040;42.848;23.034;2022-09-03T08:50:21;95068.16;;;22.03;100.00
7990;BME280;4040;42.848;23.034;2022-09-03T08:56:20;95064.63;;;22.93;100.00
7990;BME280;4040;42.848;23.034;2022-09-03T09:02:19;95069.44;;;23.27;100.00
7990;BME280;4040;42.848;23.034;2022-09-03T09:08:17;95074.72;;;23.45;100.00
7990;BME280;4040;42.848;23.034;2022-09-03T09:14:16;95080.44;;;23.27;100.00
7990;BME280;4040;42.848;23.034;2022-09-03T09:24:35;95085.88;;;25.58;86.38
7990;BME280;4040;42.848;23.034;2022-09-03T09:30:26;95089.59;;;27.41;72.29
7990;BME280;4040;42.848;23.034;2022-09-03T09:36:16;95096.91;;;27.27;76.19
7990;BME280;4040;42.848;23.034;2022-09-03T09:42:07;95083.81;;;29.42;65.35
7990;BME280;4040;42.848;23.034;2022-09-03T09:47:58;95084.84;;;31.52;56.36
7990;BME280;4040;42.848;23.034;2022-09-03T09:53:58;95087.16;;;29.01;59.86
7990;BME280;4040;42.848;23.034;2022-09-03T09:59:47;95085.31;;;29.43;65.73
7990;BME280;4040;42.848;23.034;2022-09-03T10:05:37;95086.53;;;34.74;48.71
7990;BME280;4040;42.848;23.034;2022-09-03T10:11:07;95090.97;;;36.38;43.09
7990;BME280;4040;42.848;23.034;2022-09-03T10:16:40;95095.66;;;35.10;43.47
7990;BME280;4040;42.848;23.034;2022-09-03T10:26:58;95094.56;;;33.73;43.19
7990;BME280;4040;42.848;23.034;2022-09-03T10:33:06;95090.22;;;31.50;49.42
7990;BME280;4040;42.848;23.034;2022-09-03T10:39:04;95096.31;;;28.17;65.47
7990;BME280;4040;42.848;23.034;2022-09-03T10:44:59;95092.34;;;29.15;58.61
7990;BME280;4040;42.848;23.034;2022-09-03T10:50:52;95086.56;;;28.67;61.96
7990;BME280;4040;42.848;23.034;2022-09-03T10:56:53;95076.94;;;29.78;57.82
7990;BME280;4040;42.848;23.034;2022-09-03T11:03:11;95079.06;;;28.51;59.89
7990;BME280;4040;42.848;23.034;2022-09-03T11:09:12;95089.59;;;27.24;65.59
7990;BME280;4040;42.848;23.034;2022-09-03T11:15:08;95091.41;;;26.47;70.69
7990;BME280;4040;42.848;23.034;2022-09-03T11:21:04;95082.31;;;25.83;72.95
7990;BME280;4040;42.848;23.034;2022-09-03T11:27:01;95084.66;;;25.28;77.23
7990;BME280;4040;42.848;23.034;2022-09-03T11:32:55;95082.09;;;24.48;84.04
7990;BME280;4040;42.848;23.034;2022-09-03T11:38:48;95083.16;;;24.30;89.52
7990;BME280;4040;42.848;23.034;2022-09-03T11:44:38;95077.91;;;24.52;87.10
7990;BME280;4040;42.848;23.034;2022-09-03T11:50:28;95077.72;;;24.16;84.72
7990;BME280;4040;42.848;23.034;2022-09-03T11:56:19;95072.75;;;24.20;89.01
7990;BME280;4040;42.848;23.034;2022-09-03T12:02:24;95071.53;;;24.01;94.02
7990;BME280;4040;42.848;23.034;2022-09-03T12:08:40;95068.72;;;23.81;89.46
7990;BME280;4040;42.848;23.034;2022-09-03T12:14:41;95051.88;;;23.73;81.85
7990;BME280;4040;42.848;23.034;2022-09-03T12:20:34;95059.34;;;23.53;92.91
7990;BME280;4040;42.848;23.034;2022-09-03T12:26:24;95046.56;;;23.70;92.06
7990;BME280;4040;42.848;23.034;2022-09-03T12:32:15;95041.81;;;24.50;80.01
7990;BME280;4040;42.848;23.034;2022-09-03T12:38:04;95040.72;;;24.17;86.42
7990;BME280;4040;42.848;23.034;2022-09-03T12:43:55;95042.59;;;23.71;89.17
7990;BME280;4040;42.848;23.034;2022-09-03T12:49:46;95036.69;;;23.78;88.46
7990;BME280;4040;42.848;23.034;2022-09-03T12:55:37;95035.00;;;23.46;85.98
7990;BME280;4040;42.848;23.034;2022-09-03T13:01:30;95028.50;;;23.29;86.50
7990;BME280;4040;42.848;23.034;2022-09-03T13:07:25;95030.16;;;23.41;92.49
7990;BME280;4040;42.848;23.034;2022-09-03T13:13:21;95012.16;;;23.40;91.30
7990;BME280;4040;42.848;23.034;2022-09-03T13:19:15;94996.13;;;23.19;92.50
7990;BME280;4040;42.848;23.034;2022-09-03T13:25:25;95003.88;;;23.20;86.61
7990;BME280;4040;42.848;23.034;2022-09-03T13:31:28;95011.19;;;22.94;90.47
7990;BME280;4040;42.848;23.034;2022-09-03T13:37:24;95010.94;;;22.92;93.60
7990;BME280;4040;42.848;23.034;2022-09-03T13:43:25;95011.97;;;22.80;92.21
7990;BME280;4040;42.848;23.034;2022-09-03T13:49:23;95014.69;;;22.37;100.00
7990;BME280;4040;42.848;23.034;2022-09-03T13:55:36;95016.44;;;22.63;98.31
7990;BME280;4040;42.848;23.034;2022-09-03T14:01:42;95006.41;;;22.60;100.00
7990;BME280;4040;42.848;23.034;2022-09-03T14:07:43;95009.59;;;22.59;95.00
7990;BME280;4040;42.848;23.034;2022-09-03T14:13:47;95017.66;;;22.62;96.07
7990;BME280;4040;42.848;23.034;2022-09-03T14:19:44;95008.28;;;22.54;100.00
7990;BME280;4040;42.848;23.034;2022-09-03T14:29:16;95014.63;;;22.60;100.00
7990;BME280;4040;42.848;23.034;2022-09-03T14:35:28;95019.63;;;22.47;98.68
7990;BME280;4040;42.848;23.034;2022-09-03T14:41:30;95024.31;;;22.32;95.27
7990;BME280;4040;42.848;23.034;2022-09-03T14:47:31;95030.28;;;22.31;94.90
7990;BME280;4040;42.848;23.034;2022-09-03T14:53:39;95025.72;;;22.13;97.29
7990;BME280;4040;42.848;23.034;2022-09-03T14:59:49;95037.16;;;22.12;100.00
7990;BME280;4040;42.848;23.034;2022-09-03T15:05:53;95039.16;;;21.88;98.23
7990;BME280;4040;42.848;23.034;2022-09-03T15:08:47;95035.97;;;21.89;98.79
7990;BME280;4040;42.848;23.034;2022-09-03T15:14:45;95038.25;;;21.67;99.91
7990;BME280;4040;42.848;23.034;2022-09-03T15:20:47;95041.75;;;21.68;100.00
7990;BME280;4040;42.848;23.034;2022-09-03T15:30:10;95037.97;;;21.65;100.00
7990;BME280;4040;42.848;23.034;2022-09-03T15:36:08;95040.50;;;21.45;100.00
7990;BME280;4040;42.848;23.034;2022-09-03T15:42:05;95047.81;;;21.39;100.00
7990;BME280;4040;42.848;23.034;2022-09-03T15:48:06;95032.72;;;21.44;100.00
7990;BME280;4040;42.848;23.034;2022-09-03T15:54:00;95043.03;;;21.25;100.00
7990;BME280;4040;42.848;23.034;2022-09-03T15:59:54;95049.00;;;21.15;100.00
7990;BME280;4040;42.848;23.034;2022-09-03T16:05:54;95055.81;;;20.87;100.00
7990;BME280;4040;42.848;23.034;2022-09-03T16:11:51;95071.94;;;20.67;100.00
7990;BME280;4040;42.848;23.034;2022-09-03T16:17:50;95069.06;;;20.71;100.00
7990;BME280;4040;42.848;23.034;2022-09-03T16:23:50;95071.19;;;20.58;100.00
7990;BME280;4040;42.848;23.034;2022-09-03T16:34:08;95063.31;;;20.15;100.00
7990;BME280;4040;42.848;23.034;2022-09-03T16:40:12;95069.09;;;19.99;100.00
7990;BME280;4040;42.848;23.034;2022-09-03T16:46:13;95062.34;;;19.73;100.00
7990;BME280;4040;42.848;23.034;2022-09-03T16:52:13;95055.97;;;19.58;100.00
7990;BME280;4040;42.848;23.034;2022-09-03T16:58:14;95082.31;;;19.43;100.00
7990;BME280;4040;42.848;23.034;2022-09-03T17:10:36;95083.56;;;19.11;100.00
7990;BME280;4040;42.848;23.034;2022-09-03T17:16:42;95104.03;;;19.07;100.00
7990;BME280;4040;42.848;23.034;2022-09-03T17:22:42;95088.41;;;18.77;100.00
7990;BME280;4040;42.848;23.034;2022-09-03T17:28:46;95124.44;;;18.72;100.00
7990;BME280;4040;42.848;23.034;2022-09-03T17:34:52;95131.16;;;18.37;100.00
7990;BME280;4040;42.848;23.034;2022-09-03T17:40:52;95139.81;;;18.23;100.00
7990;BME280;4040;42.848;23.034;2022-09-03T17:46:27;95151.63;;;18.20;100.00
7990;BME280;4040;42.848;23.034;2022-09-03T17:52:05;95151.84;;;18.13;100.00
7990;BME280;4040;42.848;23.034;2022-09-03T17:58:00;95179.22;;;17.97;100.00
7990;BME280;4040;42.848;23.034;2022-09-03T18:03:54;95194.00;;;17.75;100.00
7990;BME280;4040;42.848;23.034;2022-09-03T18:09:52;95193.78;;;17.44;100.00
7990;BME280;4040;42.848;23.034;2022-09-03T18:15:46;95194.66;;;17.41;100.00
7990;BME280;4040;42.848;23.034;2022-09-03T18:21:18;95203.84;;;17.19;100.00
7990;BME280;4040;42.848;23.034;2022-09-03T18:27:08;95214.44;;;17.29;100.00
7990;BME280;4040;42.848;23.034;2022-09-03T18:32:56;95227.38;;;16.84;100.00
7990;BME280;4040;42.848;23.034;2022-09-03T18:38:42;95211.94;;;16.81;100.00
7990;BME280;4040;42.848;23.034;2022-09-03T18:44:34;95216.91;;;16.70;100.00
7990;BME280;4040;42.848;23.034;2022-09-03T18:50:50;95219.81;;;16.63;100.00
7990;BME280;4040;42.848;23.034;2022-09-03T18:56:57;95242.09;;;16.58;100.00
7990;BME280;4040;42.848;23.034;2022-09-03T19:02:49;95241.78;;;16.08;100.00
7990;BME280;4040;42.848;23.034;2022-09-03T19:09:03;95251.63;;;16.18;100.00
7990;BME280;4040;42.848;23.034;2022-09-03T19:15:16;95268.78;;;15.99;100.00
7990;BME280;4040;42.848;23.034;2022-09-03T19:21:29;95277.13;;;15.92;100.00
7990;BME280;4040;42.848;23.034;2022-09-03T19:27:43;95278.47;;;16.00;100.00
7990;BME280;4040;42.848;23.034;2022-09-03T19:34:00;95271.69;;;15.92;100.00
7990;BME280;4040;42.848;23.034;2022-09-03T19:40:21;95268.00;;;15.67;100.00
7990;BME280;4040;42.848;23.034;2022-09-03T19:46:36;95283.59;;;15.47;100.00
7990;BME280;4040;42.848;23.034;2022-09-03T19:52:49;95281.00;;;15.40;100.00
7990;BME280;4040;42.848;23.034;2022-09-03T19:59:02;95282.41;;;15.28;100.00
7990;BME280;4040;42.848;23.034;2022-09-03T20:05:15;95294.78;;;15.29;100.00
7990;BME280;4040;42.848;23.034;2022-09-03T20:11:23;95287.13;;;14.86;100.00
7990;BME280;4040;42.848;23.034;2022-09-03T20:17:22;95292.78;;;15.14;100.00
7990;BME280;4040;42.848;23.034;2022-09-03T20:23:19;95299.81;;;15.12;100.00
7990;BME280;4040;42.848;23.034;2022-09-03T20:29:22;95282.72;;;14.30;100.00
7990;BME280;4040;42.848;23.034;2022-09-03T20:35:21;95318.44;;;14.25;100.00
7990;BME280;4040;42.848;23.034;2022-09-03T20:41:19;95326.19;;;14.23;100.00
7990;BME280;4040;42.848;23.034;2022-09-03T20:47:29;95323.84;;;14.25;100.00
7990;BME280;4040;42.848;23.034;2022-09-03T20:53:40;95320.59;;;14.33;100.00
7990;BME280;4040;42.848;23.034;2022-09-03T20:59:41;95332.78;;;14.22;100.00
7990;BME280;4040;42.848;23.034;2022-09-03T21:05:39;95313.88;;;14.18;100.00
7990;BME280;4040;42.848;23.034;2022-09-03T21:11:37;95327.91;;;14.10;100.00
7990;BME280;4040;42.848;23.034;2022-09-03T21:17:41;95318.00;;;14.00;100.00
7990;BME280;4040;42.848;23.034;2022-09-03T21:23:35;95314.97;;;13.98;100.00
7990;BME280;4040;42.848;23.034;2022-09-03T21:32:57;95313.44;;;13.97;100.00
7990;BME280;4040;42.848;23.034;2022-09-03T21:39:07;95315.47;;;13.63;100.00
7990;BME280;4040;42.848;23.034;2022-09-03T21:45:00;95260.13;;;13.41;100.00
7990;BME280;4040;42.848;23.034;2022-09-03T21:50:55;95330.28;;;13.55;100.00
7990;BME280;4040;42.848;23.034;2022-09-03T21:56:53;95320.13;;;13.62;100.00
7990;BME280;4040;42.848;23.034;2022-09-03T22:08:45;95328.75;;;12.87;100.00
7990;BME280;4040;42.848;23.034;2022-09-03T22:14:39;95330.47;;;12.70;100.00
7990;BME280;4040;42.848;23.034;2022-09-03T22:20:30;95330.78;;;12.76;100.00
7990;BME280;4040;42.848;23.034;2022-09-03T22:26:25;95340.38;;;12.84;100.00
7990;BME280;4040;42.848;23.034;2022-09-03T22:32:30;95327.31;;;12.79;100.00
7990;BME280;4040;42.848;23.034;2022-09-03T22:38:50;95325.72;;;12.81;100.00
7990;BME280;4040;42.848;23.034;2022-09-03T22:45:00;95334.97;;;12.84;100.00
7990;BME280;4040;42.848;23.034;2022-09-03T22:50:57;95331.09;;;12.85;100.00
7990;BME280;4040;42.848;23.034;2022-09-03T22:56:47;95327.38;;;12.72;100.00
7990;BME280;4040;42.848;23.034;2022-09-03T23:02:39;95337.47;;;12.68;100.00
7990;BME280;4040;42.848;23.034;2022-09-03T23:08:32;95324.38;;;12.63;100.00
7990;BME280;4040;42.848;23.034;2022-09-03T23:14:25;95342.41;;;12.73;100.00
7990;BME280;4040;42.848;23.034;2022-09-03T23:20:19;95347.47;;;12.71;100.00
7990;BME280;4040;42.848;23.034;2022-09-03T23:26:12;95338.91;;;12.76;100.00
7990;BME280;4040;42.848;23.034;2022-09-03T23:32:03;95348.28;;;12.68;100.00
7990;BME280;4040;42.848;23.034;2022-09-03T23:38:10;95351.38;;;12.66;100.00
7990;BME280;4040;42.848;23.034;2022-09-03T23:44:09;95358.41;;;12.57;100.00
7990;BME280;4040;42.848;23.034;2022-09-03T23:50:14;95361.53;;;12.52;100.00
7990;BME280;4040;42.848;23.034;2022-09-03T23:56:38;95364.72;;;12.80;100.00
